createdAt,value
2022-12-08T00:00:43.030Z,99893.23
2022-12-08T00:03:29.564Z,99896.69
2022-12-08T00:06:43.532Z,99898.05
2022-12-08T00:09:40.582Z,99890.83
2022-12-08T00:12:27.033Z,99895.00
2022-12-08T00:15:13.548Z,99893.23
2022-12-08T00:17:59.783Z,99888.86
2022-12-08T00:20:46.268Z,99887.43
2022-12-08T00:23:33.083Z,99893.34
2022-12-08T00:26:19.263Z,99890.33
2022-12-08T00:29:05.830Z,99883.63
2022-12-08T00:31:52.581Z,99882.70
2022-12-08T00:34:39.089Z,99882.72
2022-12-08T00:37:25.696Z,99884.31
2022-12-08T00:40:12.445Z,99892.91
2022-12-08T00:42:59.069Z,99896.41
2022-12-08T00:45:45.599Z,99896.78
2022-12-08T00:48:32.276Z,99902.05
2022-12-08T00:51:18.835Z,99903.67
2022-12-08T00:54:05.720Z,99894.90
2022-12-08T00:56:51.888Z,99890.02
2022-12-08T00:59:37.966Z,99893.71
2022-12-08T01:02:25.065Z,99894.72
2022-12-08T01:05:11.195Z,99894.51
2022-12-08T01:07:57.922Z,99894.98
2022-12-08T01:10:44.235Z,99899.20
2022-12-08T01:13:30.660Z,99895.58
2022-12-08T01:16:30.254Z,99894.05
2022-12-08T01:19:19.654Z,99893.26
2022-12-08T01:22:05.905Z,99888.58
2022-12-08T01:24:52.459Z,99892.67
2022-12-08T01:27:38.682Z,99893.05
2022-12-08T01:30:25.166Z,99890.39
2022-12-08T01:33:11.644Z,99885.13
2022-12-08T01:36:03.182Z,99889.52
2022-12-08T01:38:49.716Z,99889.16
2022-12-08T01:41:37.574Z,99891.61
2022-12-08T01:44:24.159Z,99894.03
2022-12-08T01:47:11.197Z,99894.70
2022-12-08T01:49:57.583Z,99895.40
2022-12-08T01:52:49.655Z,99892.95
2022-12-08T01:55:38.976Z,99891.19
2022-12-08T01:58:28.832Z,99891.02
2022-12-08T02:01:15.350Z,99890.17
2022-12-08T02:04:03.151Z,99882.99
2022-12-08T02:06:49.831Z,99883.70
2022-12-08T02:09:37.148Z,99887.41
2022-12-08T02:12:23.712Z,99887.54
2022-12-08T02:15:10.196Z,99887.86
2022-12-08T02:18:21.964Z,99884.67
2022-12-08T02:21:22.283Z,99885.31
2022-12-08T02:24:28.810Z,99880.90
2022-12-08T02:27:21.235Z,99886.00
2022-12-08T02:30:20.626Z,99883.73
2022-12-08T02:33:39.349Z,99881.64
2022-12-08T02:36:46.448Z,99880.95
2022-12-08T02:39:53.160Z,99882.42
2022-12-08T02:42:44.930Z,99876.33
2022-12-08T02:45:43.856Z,99879.02
2022-12-08T02:48:30.179Z,99874.11
2022-12-08T02:51:16.377Z,99871.09
2022-12-08T02:54:02.611Z,99872.13
2022-12-08T02:57:06.487Z,99872.77
2022-12-08T03:00:13.343Z,99871.70
2022-12-08T03:03:17.726Z,99869.10
2022-12-08T03:06:11.536Z,99867.23
2022-12-08T03:09:04.185Z,99867.61
2022-12-08T03:12:04.436Z,99868.17
2022-12-08T03:14:53.904Z,99871.73
2022-12-08T03:17:43.476Z,99868.08
2022-12-08T03:20:30.337Z,99868.31
2022-12-08T03:23:16.535Z,99863.79
2022-12-08T03:26:10.986Z,99862.23
2022-12-08T03:28:57.771Z,99858.19
2022-12-08T03:32:27.348Z,99857.67
2022-12-08T03:35:19.682Z,99862.09
2022-12-08T03:38:10.983Z,99861.36
2022-12-08T03:41:16.377Z,99863.07
2022-12-08T03:44:02.396Z,99860.89
2022-12-08T03:46:48.727Z,99865.03
2022-12-08T03:49:35.272Z,99869.44
2022-12-08T03:52:21.275Z,99864.89
2022-12-08T03:55:07.838Z,99866.77
2022-12-08T03:57:54.172Z,99864.47
2022-12-08T04:00:40.576Z,99866.92
2022-12-08T04:03:27.076Z,99864.13
2022-12-08T04:06:13.665Z,99860.25
2022-12-08T04:09:00.005Z,99853.44
2022-12-08T04:11:46.568Z,99857.14
2022-12-08T04:14:32.971Z,99855.79
2022-12-08T04:17:19.350Z,99852.91
2022-12-08T04:20:06.575Z,99846.36
2022-12-08T04:22:53.013Z,99841.16
2022-12-08T04:25:39.390Z,99839.90
2022-12-08T04:28:26.239Z,99838.85
2022-12-08T04:31:12.813Z,99839.69
2022-12-08T04:33:59.255Z,99834.52
2022-12-08T04:36:45.813Z,99838.55
2022-12-08T04:39:31.994Z,99837.39
2022-12-08T04:42:18.285Z,99834.41
2022-12-08T04:45:05.234Z,99832.02
2022-12-08T04:47:51.772Z,99835.30
2022-12-08T04:50:39.744Z,99832.59
2022-12-08T04:53:27.177Z,99833.14
2022-12-08T04:56:14.817Z,99828.98
2022-12-08T04:59:00.860Z,99826.60
2022-12-08T05:01:47.310Z,99826.95
2022-12-08T05:04:33.868Z,99830.78
2022-12-08T05:07:20.445Z,99829.34
2022-12-08T05:10:07.635Z,99825.17
2022-12-08T05:12:54.544Z,99824.40
2022-12-08T05:15:40.779Z,99820.01
2022-12-08T05:18:27.196Z,99819.70
2022-12-08T05:21:13.699Z,99818.73
2022-12-08T05:24:00.142Z,99817.19
2022-12-08T05:26:46.572Z,99819.98
2022-12-08T05:29:33.046Z,99816.67
2022-12-08T05:32:19.650Z,99815.13
2022-12-08T05:35:06.807Z,99810.65
2022-12-08T05:37:53.956Z,99810.23
2022-12-08T05:40:40.383Z,99811.81
2022-12-08T05:43:26.905Z,99810.94
2022-12-08T05:46:13.715Z,99807.27
2022-12-08T05:49:00.779Z,99810.39
2022-12-08T05:51:46.921Z,99808.54
2022-12-08T05:54:33.680Z,99810.30
2022-12-08T05:57:20.183Z,99810.23
2022-12-08T06:00:07.620Z,99804.54
2022-12-08T06:02:54.555Z,99802.86
2022-12-08T06:05:41.402Z,99804.50
2022-12-08T06:08:27.559Z,99796.64
2022-12-08T06:11:18.776Z,99800.50
2022-12-08T06:14:05.231Z,99801.71
2022-12-08T06:16:51.630Z,99806.45
2022-12-08T06:19:38.011Z,99805.56
2022-12-08T06:22:24.638Z,99805.08
2022-12-08T06:25:11.084Z,99803.69
2022-12-08T06:27:57.721Z,99802.02
2022-12-08T06:30:44.429Z,99803.98
2022-12-08T06:33:30.552Z,99804.48
2022-12-08T06:36:18.264Z,99797.25
2022-12-08T06:39:05.014Z,99801.59
2022-12-08T06:42:09.697Z,99803.58
2022-12-08T06:44:55.879Z,99807.48
2022-12-08T06:47:42.344Z,99808.75
2022-12-08T06:50:28.758Z,99811.06
2022-12-08T06:53:15.393Z,99808.95
2022-12-08T06:56:01.720Z,99810.52
2022-12-08T06:58:52.488Z,99806.48
2022-12-08T07:01:39.025Z,99805.93
2022-12-08T07:04:25.235Z,99812.40
2022-12-08T07:07:11.714Z,99807.86
2022-12-08T07:09:58.089Z,99809.07
2022-12-08T07:12:44.429Z,99814.48
2022-12-08T07:15:31.055Z,99815.36
2022-12-08T07:18:17.441Z,99813.95
2022-12-08T07:21:07.904Z,99814.77
2022-12-08T07:23:57.588Z,99815.40
2022-12-08T07:26:44.667Z,99815.85
2022-12-08T07:29:30.969Z,99814.31
2022-12-08T07:32:17.683Z,99814.08
2022-12-08T07:35:04.577Z,99815.59
2022-12-08T07:37:50.869Z,99811.05
2022-12-08T07:40:39.195Z,99811.60
2022-12-08T07:43:25.863Z,99810.02
2022-12-08T07:46:13.307Z,99816.27
2022-12-08T07:49:00.101Z,99820.45
2022-12-08T07:51:46.383Z,99824.41
2022-12-08T07:54:32.793Z,99822.58
2022-12-08T07:57:19.358Z,99823.71
2022-12-08T08:00:07.009Z,99822.91
2022-12-08T08:02:54.031Z,99823.52
2022-12-08T08:05:40.687Z,99816.58
2022-12-08T08:08:27.015Z,99823.27
2022-12-08T08:11:20.756Z,99819.85
2022-12-08T08:14:07.908Z,99820.66
2022-12-08T08:16:54.315Z,99818.76
2022-12-08T08:19:40.920Z,99815.70
2022-12-08T08:22:27.508Z,99817.08
2022-12-08T08:25:14.648Z,99818.63
2022-12-08T08:28:01.045Z,99821.99
2022-12-08T08:30:47.564Z,99819.40
2022-12-08T08:33:33.863Z,99816.82
2022-12-08T08:36:22.058Z,99807.97
2022-12-08T08:39:08.982Z,99812.28
2022-12-08T08:41:55.205Z,99808.15
2022-12-08T08:44:41.429Z,99811.72
2022-12-08T08:47:28.163Z,99809.77
2022-12-08T08:50:14.369Z,99804.42
2022-12-08T08:53:01.079Z,99802.71
2022-12-08T08:55:47.623Z,99803.73
2022-12-08T08:58:34.091Z,99798.98
2022-12-08T09:01:22.197Z,99795.79
2022-12-08T09:04:09.714Z,99792.21
2022-12-08T09:06:56.317Z,99790.51
2022-12-08T09:09:42.483Z,99788.81
2022-12-08T09:12:28.841Z,99784.33
2022-12-08T09:15:15.023Z,99786.96
2022-12-08T09:18:01.397Z,99783.90
2022-12-08T09:20:48.001Z,99788.39
2022-12-08T09:23:35.926Z,99791.37
2022-12-08T09:26:23.241Z,99787.98
2022-12-08T09:29:10.124Z,99783.42
2022-12-08T09:31:56.600Z,99787.70
2022-12-08T09:34:45.360Z,99781.62
2022-12-08T09:37:35.588Z,99776.55
2022-12-08T09:40:23.084Z,99774.26
2022-12-08T09:43:22.203Z,99773.28
2022-12-08T09:46:10.478Z,99769.86
2022-12-08T09:48:58.543Z,99772.73
2022-12-08T09:51:44.985Z,99771.63
2022-12-08T09:54:34.804Z,99770.64
2022-12-08T09:57:21.156Z,99766.52
2022-12-08T10:00:11.813Z,99769.14
2022-12-08T10:02:59.993Z,99767.84
2022-12-08T10:05:51.539Z,99763.25
2022-12-08T10:09:12.834Z,99760.33
2022-12-08T10:12:02.710Z,99759.52
2022-12-08T10:15:16.517Z,99757.27
2022-12-08T10:18:04.167Z,99752.98
2022-12-08T10:20:50.880Z,99752.26
2022-12-08T10:23:38.428Z,99746.69
2022-12-08T10:26:24.918Z,99744.05
2022-12-08T10:29:14.438Z,99741.35
2022-12-08T10:32:00.679Z,99740.08
2022-12-08T10:35:07.479Z,99739.04
2022-12-08T10:37:57.785Z,99735.02
2022-12-08T10:40:45.891Z,99735.88
2022-12-08T10:43:32.221Z,99731.52
2022-12-08T10:46:20.575Z,99725.75
2022-12-08T10:49:06.699Z,99726.86
2022-12-08T10:51:53.270Z,99726.88
2022-12-08T10:54:40.364Z,99728.27
2022-12-08T10:57:26.916Z,99727.92
2022-12-08T11:00:15.401Z,99722.25
2022-12-08T11:03:03.464Z,99721.66
2022-12-08T11:05:50.016Z,99723.99
2022-12-08T11:08:44.462Z,99723.77
2022-12-08T11:11:50.125Z,99725.08
2022-12-08T11:14:46.899Z,99719.02
2022-12-08T11:17:39.380Z,99711.57
2022-12-08T11:20:25.471Z,99709.48
2022-12-08T11:23:19.503Z,99712.01
2022-12-08T11:26:26.311Z,99707.98
2022-12-08T11:29:13.106Z,99706.31
2022-12-08T11:32:04.607Z,99700.39
2022-12-08T11:35:02.132Z,99701.45
2022-12-08T11:37:48.527Z,99699.39
2022-12-08T11:40:36.441Z,99700.58
2022-12-08T11:44:10.537Z,99700.77
2022-12-08T11:47:31.806Z,99692.86
2022-12-08T11:50:25.784Z,99692.77
2022-12-08T11:53:25.165Z,99691.49
2022-12-08T11:56:23.779Z,99691.23
2022-12-08T11:59:25.241Z,99695.08
2022-12-08T12:02:20.292Z,99688.77
2022-12-08T12:05:23.562Z,99689.74
2022-12-08T12:09:12.859Z,99687.77
2022-12-08T12:12:15.977Z,99687.00
2022-12-08T12:15:30.160Z,99679.70
2022-12-08T12:18:23.471Z,99680.64
2022-12-08T12:21:31.541Z,99680.16
2022-12-08T12:24:35.764Z,99686.28
2022-12-08T12:27:34.226Z,99686.25
2022-12-08T12:30:23.483Z,99686.12
2022-12-08T12:33:13.523Z,99688.16
2022-12-08T12:36:03.117Z,99688.27
2022-12-08T12:39:04.180Z,99686.77
2022-12-08T12:41:58.847Z,99688.30
2022-12-08T12:44:45.371Z,99684.09
2022-12-08T12:47:52.582Z,99689.55
2022-12-08T12:50:44.723Z,99688.38
2022-12-08T12:53:37.288Z,99680.42
2022-12-08T12:56:47.320Z,99677.58
2022-12-08T12:59:55.592Z,99678.63
2022-12-08T13:02:45.068Z,99677.15
2022-12-08T13:05:34.109Z,99668.88
2022-12-08T13:08:24.633Z,99663.42
2022-12-08T13:11:11.239Z,99656.08
2022-12-08T13:14:03.651Z,99657.23
2022-12-08T13:16:50.186Z,99657.98
2022-12-08T13:19:37.032Z,99660.14
2022-12-08T13:22:50.708Z,99661.26
2022-12-08T13:25:40.064Z,99663.32
2022-12-08T13:28:29.620Z,99660.51
2022-12-08T13:31:53.464Z,99655.45
2022-12-08T13:34:49.632Z,99654.42
2022-12-08T13:37:52.432Z,99653.64
2022-12-08T13:40:41.360Z,99653.40
2022-12-08T13:44:02.156Z,99655.38
2022-12-08T13:47:17.161Z,99652.38
2022-12-08T13:54:42.620Z,99655.14
2022-12-08T13:57:04.012Z,99654.91
2022-12-08T13:59:49.291Z,99650.91
2022-12-08T14:02:46.867Z,99653.14
2022-12-08T14:06:11.033Z,99652.84
2022-12-08T14:09:00.316Z,99654.67
2022-12-08T14:11:59.595Z,99654.17
2022-12-08T14:15:02.993Z,99655.82
2022-12-08T14:17:56.949Z,99656.88
2022-12-08T14:21:19.066Z,99657.86
2022-12-08T14:23:49.650Z,99658.23
2022-12-08T14:26:36.173Z,99661.52
2022-12-08T14:29:51.151Z,99662.60
2022-12-08T14:32:44.405Z,99661.30
2022-12-08T14:35:32.059Z,99665.27
2022-12-08T14:38:19.624Z,99673.59
2022-12-08T14:41:07.896Z,99673.42
2022-12-08T14:44:01.190Z,99678.58
2022-12-08T14:47:05.641Z,99681.27
2022-12-08T14:49:52.389Z,99682.74
2022-12-08T14:52:43.097Z,99680.27
2022-12-08T14:55:34.363Z,99682.02
2022-12-08T14:58:24.087Z,99679.61
2022-12-08T15:01:13.269Z,99677.04
2022-12-08T15:04:09.280Z,99676.60
2022-12-08T15:07:15.031Z,99676.27
2022-12-08T15:10:11.130Z,99682.53
2022-12-08T15:12:57.699Z,99683.65
2022-12-08T15:15:55.415Z,99677.96
2022-12-08T15:18:41.811Z,99677.19
2022-12-08T15:21:29.973Z,99678.36
2022-12-08T15:24:16.862Z,99680.77
2022-12-08T15:27:03.613Z,99680.39
2022-12-08T15:29:50.288Z,99681.77
2022-12-08T15:32:36.681Z,99677.05
2022-12-08T15:35:23.549Z,99679.40
2022-12-08T15:38:26.564Z,99679.92
2022-12-08T15:41:15.215Z,99678.58
2022-12-08T15:44:02.043Z,99679.34
2022-12-08T15:46:50.028Z,99683.10
2022-12-08T15:49:36.565Z,99678.09
2022-12-08T15:52:24.248Z,99677.62
2022-12-08T15:55:17.965Z,99674.63
2022-12-08T15:58:51.645Z,99673.80
2022-12-08T16:01:10.835Z,99675.62
2022-12-08T16:04:36.879Z,99673.93
2022-12-08T16:07:20.855Z,99671.00
2022-12-08T16:10:10.826Z,99671.20
2022-12-08T16:16:25.874Z,99675.98
2022-12-08T16:19:14.034Z,99673.27
2022-12-08T16:25:18.875Z,99673.98
2022-12-08T16:28:29.253Z,99673.67
2022-12-08T16:31:15.080Z,99671.23
2022-12-08T16:34:03.187Z,99670.81
2022-12-08T16:36:52.401Z,99670.65
2022-12-08T16:39:44.129Z,99669.47
2022-12-08T16:42:45.956Z,99668.69
2022-12-08T16:45:32.553Z,99677.95
2022-12-08T16:48:18.912Z,99676.84
2022-12-08T16:51:09.142Z,99675.35
2022-12-08T16:53:56.968Z,99675.13
2022-12-08T16:56:43.617Z,99677.69
2022-12-08T16:59:31.138Z,99677.10
2022-12-08T17:02:17.755Z,99680.14
2022-12-08T17:05:04.658Z,99671.45
2022-12-08T17:07:51.835Z,99670.89
2022-12-08T17:10:39.420Z,99672.22
2022-12-08T17:13:25.713Z,99667.23
2022-12-08T17:16:16.372Z,99667.73
2022-12-08T17:19:02.585Z,99662.80
2022-12-08T17:21:48.705Z,99661.64
2022-12-08T17:24:35.375Z,99658.87
2022-12-08T17:27:21.559Z,99665.02
2022-12-08T17:30:09.407Z,99665.55
2022-12-08T17:32:56.143Z,99671.19
2022-12-08T17:35:49.392Z,99672.46
2022-12-08T17:38:35.832Z,99678.49
2022-12-08T17:41:22.451Z,99678.39
2022-12-08T17:44:12.399Z,99683.73
2022-12-08T17:47:02.447Z,99684.03
2022-12-08T17:49:48.808Z,99685.35
2022-12-08T17:52:34.950Z,99686.67
2022-12-08T17:55:21.431Z,99684.29
2022-12-08T17:58:08.001Z,99680.34
2022-12-08T18:00:54.324Z,99684.11
2022-12-08T18:03:40.994Z,99685.59
2022-12-08T18:06:31.160Z,99685.39
2022-12-08T18:09:17.803Z,99682.77
2022-12-08T18:12:04.516Z,99683.75
2022-12-08T18:14:51.680Z,99682.58
2022-12-08T18:17:37.789Z,99680.00
2022-12-08T18:20:24.311Z,99684.90
2022-12-08T18:23:11.115Z,99681.23
2022-12-08T18:25:57.349Z,99680.67
2022-12-08T18:28:43.848Z,99682.45
2022-12-08T18:31:30.245Z,99687.38
2022-12-08T18:34:18.954Z,99683.16
2022-12-08T18:37:07.380Z,99681.95
2022-12-08T18:39:53.796Z,99678.59
2022-12-08T18:42:40.027Z,99679.39
2022-12-08T18:45:26.561Z,99677.21
2022-12-08T18:48:12.772Z,99674.39
2022-12-08T18:50:59.359Z,99676.17
2022-12-08T18:53:46.044Z,99673.40
2022-12-08T18:56:33.238Z,99671.52
2022-12-08T18:59:22.794Z,99668.05
2022-12-08T19:02:31.878Z,99667.88
2022-12-08T19:05:18.273Z,99668.71
2022-12-08T19:08:04.917Z,99676.21
2022-12-08T19:10:51.695Z,99676.61
2022-12-08T19:13:38.727Z,99679.98
2022-12-08T19:16:25.386Z,99677.73
2022-12-08T19:19:11.912Z,99677.08
2022-12-08T19:21:58.166Z,99678.66
2022-12-08T19:24:44.403Z,99678.20
2022-12-08T19:27:31.031Z,99676.79
2022-12-08T19:30:17.799Z,99676.45
2022-12-08T19:33:04.497Z,99679.44
2022-12-08T19:35:52.687Z,99677.69
2022-12-08T19:38:58.874Z,99681.54
2022-12-08T19:42:03.542Z,99678.92
2022-12-08T19:44:52.538Z,99677.27
2022-12-08T19:47:38.798Z,99675.34
2022-12-08T19:50:36.895Z,99665.16
2022-12-08T19:53:24.601Z,99661.98
2022-12-08T19:56:11.336Z,99662.88
2022-12-08T19:58:57.689Z,99658.17
2022-12-08T20:01:44.452Z,99655.06
2022-12-08T20:04:31.079Z,99654.98
2022-12-08T20:07:17.298Z,99657.22
2022-12-08T20:10:11.671Z,99652.97
2022-12-08T20:13:16.694Z,99654.18
2022-12-08T20:16:03.276Z,99655.93
2022-12-08T20:18:50.254Z,99657.83
2022-12-08T20:21:36.583Z,99662.69
2022-12-08T20:24:22.977Z,99659.45
2022-12-08T20:27:09.531Z,99658.67
2022-12-08T20:29:56.061Z,99657.77
2022-12-08T20:32:42.302Z,99666.20
2022-12-08T20:35:28.463Z,99669.54
2022-12-08T20:38:14.846Z,99672.17
2022-12-08T20:41:01.170Z,99677.11
2022-12-08T20:43:47.301Z,99676.88
2022-12-08T20:46:34.572Z,99677.73
2022-12-08T20:49:21.210Z,99679.46
2022-12-08T20:52:08.263Z,99679.82
2022-12-08T20:54:54.615Z,99678.41
2022-12-08T20:57:41.284Z,99680.39
2022-12-08T21:00:28.194Z,99681.98
2022-12-08T21:03:15.474Z,99683.36
2022-12-08T21:06:02.532Z,99685.10
2022-12-08T21:08:48.949Z,99688.61
2022-12-08T21:11:36.001Z,99690.20
2022-12-08T21:14:22.516Z,99689.36
2022-12-08T21:17:08.803Z,99688.16
2022-12-08T21:19:55.159Z,99684.84
2022-12-08T21:22:41.667Z,99682.54
2022-12-08T21:25:28.504Z,99686.72
2022-12-08T21:28:15.460Z,99679.50
2022-12-08T21:31:06.415Z,99680.23
2022-12-08T21:33:55.167Z,99679.21
2022-12-08T21:36:42.126Z,99678.56
2022-12-08T21:39:28.828Z,99685.20
2022-12-08T21:42:34.457Z,99685.22
2022-12-08T21:45:21.327Z,99684.75
2022-12-08T21:48:11.749Z,99685.09
2022-12-08T21:51:04.292Z,99688.20
2022-12-08T21:53:51.052Z,99688.54
2022-12-08T21:56:37.643Z,99688.16
2022-12-08T21:59:24.221Z,99683.98
2022-12-08T22:02:14.695Z,99683.11
2022-12-08T22:05:05.450Z,99679.83
2022-12-08T22:07:51.917Z,99679.84
2022-12-08T22:10:38.417Z,99680.23
2022-12-08T22:13:24.890Z,99681.80
2022-12-08T22:16:12.086Z,99680.23
2022-12-08T22:18:59.814Z,99678.15
2022-12-08T22:21:47.343Z,99681.02
2022-12-08T22:24:33.604Z,99683.98
2022-12-08T22:27:20.273Z,99679.90
2022-12-08T22:30:07.432Z,99678.81
2022-12-08T22:32:54.413Z,99677.67
2022-12-08T22:35:40.878Z,99677.63
2022-12-08T22:38:27.247Z,99677.11
2022-12-08T22:41:13.850Z,99672.45
2022-12-08T22:44:00.389Z,99676.38
2022-12-08T22:46:46.965Z,99674.81
2022-12-08T22:49:33.785Z,99669.77
2022-12-08T22:52:20.281Z,99668.77
2022-12-08T22:55:07.150Z,99668.75
2022-12-08T22:57:53.733Z,99668.91
2022-12-08T23:00:40.133Z,99669.10
2022-12-08T23:03:26.605Z,99665.59
2022-12-08T23:06:13.276Z,99666.65
2022-12-08T23:08:59.978Z,99667.73
2022-12-08T23:11:46.318Z,99670.93
2022-12-08T23:14:32.469Z,99668.02
2022-12-08T23:17:18.845Z,99668.21
2022-12-08T23:20:06.499Z,99666.85
2022-12-08T23:22:53.067Z,99667.27
2022-12-08T23:25:41.024Z,99670.77
2022-12-08T23:28:27.573Z,99672.50
2022-12-08T23:31:14.393Z,99674.77
2022-12-08T23:34:02.068Z,99674.92
2022-12-08T23:36:48.577Z,99675.96
2022-12-08T23:39:35.313Z,99678.39
2022-12-08T23:42:21.701Z,99678.78
2022-12-08T23:45:09.169Z,99686.19
2022-12-08T23:47:55.683Z,99684.13
2022-12-08T23:50:41.985Z,99688.34
2022-12-08T23:53:32.045Z,99689.40
2022-12-08T23:56:18.811Z,99694.52
2022-12-08T23:59:05.218Z,99693.44
